Terminal Aerodrome Forecast
Issued by NWS

Home | Current Version | Previous Version | Text Only | Print | Product List | Glossary On
Versions: 1 2 3 4 5 6 7 8 9 10 11 12 13 14
000
FTUS45 KRIW 281700
TAFCPR
TAF
KCPR 281720Z 2818/2918 22020G35KT P6SM SCT200 WS015/25045KT
     FM282200 21018G28KT P6SM SKC WS020/25040KT
     FM290200 22025G45KT P6SM SKC WS018/24060KT=

USA.gov is the U.S. government's official web portal to all federal, state and local government web resources and services.